sensor_id;sensor_type;location;lat;lon;timestamp;P1;durP1;ratioP1;P2;durP2;ratioP2
5841;SDS011;2947;52.276;9.946;2023-04-01T00:01:02;4.10;;;1.40;;
5841;SDS011;2947;52.276;9.946;2023-04-01T00:03:30;5.63;;;2.10;;
5841;SDS011;2947;52.276;9.946;2023-04-01T00:05:58;5.03;;;1.60;;
5841;SDS011;2947;52.276;9.946;2023-04-01T00:08:24;4.37;;;1.57;;
5841;SDS011;2947;52.276;9.946;2023-04-01T00:10:51;4.80;;;1.60;;
5841;SDS011;2947;52.276;9.946;2023-04-01T00:13:17;5.27;;;1.30;;
5841;SDS011;2947;52.276;9.946;2023-04-01T00:15:44;11.57;;;1.93;;
5841;SDS011;2947;52.276;9.946;2023-04-01T00:18:11;7.33;;;1.33;;
5841;SDS011;2947;52.276;9.946;2023-04-01T00:20:37;6.40;;;1.40;;
5841;SDS011;2947;52.276;9.946;2023-04-01T00:23:03;4.13;;;1.40;;
5841;SDS011;2947;52.276;9.946;2023-04-01T00:25:29;5.00;;;1.20;;
5841;SDS011;2947;52.276;9.946;2023-04-01T00:27:55;4.03;;;1.23;;
5841;SDS011;2947;52.276;9.946;2023-04-01T00:30:21;5.77;;;1.53;;
5841;SDS011;2947;52.276;9.946;2023-04-01T00:32:50;10.03;;;1.47;;
5841;SDS011;2947;52.276;9.946;2023-04-01T00:35:17;10.77;;;1.63;;
5841;SDS011;2947;52.276;9.946;2023-04-01T00:37:44;3.93;;;1.00;;
5841;SDS011;2947;52.276;9.946;2023-04-01T00:40:21;3.83;;;1.20;;
5841;SDS011;2947;52.276;9.946;2023-04-01T00:42:54;6.10;;;0.90;;
5841;SDS011;2947;52.276;9.946;2023-04-01T00:45:25;6.00;;;1.73;;
5841;SDS011;2947;52.276;9.946;2023-04-01T00:47:58;4.30;;;0.90;;
5841;SDS011;2947;52.276;9.946;2023-04-01T00:50:33;3.10;;;1.00;;
5841;SDS011;2947;52.276;9.946;2023-04-01T00:53:00;8.00;;;0.97;;
5841;SDS011;2947;52.276;9.946;2023-04-01T00:55:28;5.10;;;0.90;;
5841;SDS011;2947;52.276;9.946;2023-04-01T00:57:57;5.70;;;2.23;;
5841;SDS011;2947;52.276;9.946;2023-04-01T01:00:25;2.23;;;0.70;;
5841;SDS011;2947;52.276;9.946;2023-04-01T01:02:51;2.70;;;0.90;;
5841;SDS011;2947;52.276;9.946;2023-04-01T01:05:17;8.13;;;1.50;;
5841;SDS011;2947;52.276;9.946;2023-04-01T01:16:42;2.90;;;0.90;;
5841;SDS011;2947;52.276;9.946;2023-04-01T01:18:59;4.83;;;0.90;;
5841;SDS011;2947;52.276;9.946;2023-04-01T01:27:49;3.60;;;0.90;;
5841;SDS011;2947;52.276;9.946;2023-04-01T01:36:50;3.37;;;0.97;;
5841;SDS011;2947;52.276;9.946;2023-04-01T01:39:24;2.20;;;0.70;;
5841;SDS011;2947;52.276;9.946;2023-04-01T01:41:55;4.17;;;0.97;;
5841;SDS011;2947;52.276;9.946;2023-04-01T01:44:25;7.20;;;1.10;;
5841;SDS011;2947;52.276;9.946;2023-04-01T01:46:55;2.73;;;0.90;;
5841;SDS011;2947;52.276;9.946;2023-04-01T01:49:21;2.67;;;0.80;;
5841;SDS011;2947;52.276;9.946;2023-04-01T01:51:48;4.40;;;0.90;;
5841;SDS011;2947;52.276;9.946;2023-04-01T01:54:15;3.90;;;0.80;;
5841;SDS011;2947;52.276;9.946;2023-04-01T01:56:43;3.97;;;0.80;;
5841;SDS011;2947;52.276;9.946;2023-04-01T01:59:20;3.07;;;1.30;;
5841;SDS011;2947;52.276;9.946;2023-04-01T02:01:50;1.93;;;0.63;;
5841;SDS011;2947;52.276;9.946;2023-04-01T02:04:19;3.93;;;0.80;;
5841;SDS011;2947;52.276;9.946;2023-04-01T02:06:58;5.80;;;1.30;;
5841;SDS011;2947;52.276;9.946;2023-04-01T02:09:28;2.07;;;1.27;;
5841;SDS011;2947;52.276;9.946;2023-04-01T02:12:02;7.30;;;1.00;;
5841;SDS011;2947;52.276;9.946;2023-04-01T02:17:05;2.53;;;0.93;;
5841;SDS011;2947;52.276;9.946;2023-04-01T02:19:39;4.93;;;0.87;;
5841;SDS011;2947;52.276;9.946;2023-04-01T02:22:14;1.73;;;0.73;;
5841;SDS011;2947;52.276;9.946;2023-04-01T02:24:45;3.90;;;1.10;;
5841;SDS011;2947;52.276;9.946;2023-04-01T02:27:12;3.30;;;0.80;;
5841;SDS011;2947;52.276;9.946;2023-04-01T02:29:38;4.27;;;0.80;;
5841;SDS011;2947;52.276;9.946;2023-04-01T02:32:04;2.17;;;0.70;;
5841;SDS011;2947;52.276;9.946;2023-04-01T02:34:31;3.43;;;0.90;;
5841;SDS011;2947;52.276;9.946;2023-04-01T02:36:58;3.60;;;1.00;;
5841;SDS011;2947;52.276;9.946;2023-04-01T02:39:24;1.67;;;0.70;;
5841;SDS011;2947;52.276;9.946;2023-04-01T02:41:53;4.63;;;1.00;;
5841;SDS011;2947;52.276;9.946;2023-04-01T02:44:19;3.20;;;0.93;;
5841;SDS011;2947;52.276;9.946;2023-04-01T02:46:45;1.80;;;0.67;;
5841;SDS011;2947;52.276;9.946;2023-04-01T02:49:11;2.53;;;0.80;;
5841;SDS011;2947;52.276;9.946;2023-04-01T02:51:37;4.70;;;0.83;;
5841;SDS011;2947;52.276;9.946;2023-04-01T02:54:03;3.40;;;0.70;;
5841;SDS011;2947;52.276;9.946;2023-04-01T02:56:28;3.47;;;0.83;;
5841;SDS011;2947;52.276;9.946;2023-04-01T02:58:54;4.90;;;0.87;;
5841;SDS011;2947;52.276;9.946;2023-04-01T03:01:21;5.00;;;0.90;;
5841;SDS011;2947;52.276;9.946;2023-04-01T03:03:49;4.13;;;1.20;;
5841;SDS011;2947;52.276;9.946;2023-04-01T03:06:15;4.27;;;1.03;;
5841;SDS011;2947;52.276;9.946;2023-04-01T03:08:43;3.30;;;0.97;;
5841;SDS011;2947;52.276;9.946;2023-04-01T03:11:09;2.80;;;0.90;;
5841;SDS011;2947;52.276;9.946;2023-04-01T03:13:36;2.90;;;1.10;;
5841;SDS011;2947;52.276;9.946;2023-04-01T03:16:02;3.93;;;1.00;;
5841;SDS011;2947;52.276;9.946;2023-04-01T03:18:27;2.07;;;0.90;;
5841;SDS011;2947;52.276;9.946;2023-04-01T03:20:53;4.13;;;0.93;;
5841;SDS011;2947;52.276;9.946;2023-04-01T03:23:19;6.17;;;1.00;;
5841;SDS011;2947;52.276;9.946;2023-04-01T03:25:46;8.13;;;1.10;;
5841;SDS011;2947;52.276;9.946;2023-04-01T03:28:14;4.00;;;1.00;;
5841;SDS011;2947;52.276;9.946;2023-04-01T03:30:39;6.37;;;1.13;;
5841;SDS011;2947;52.276;9.946;2023-04-01T03:33:05;4.70;;;1.30;;
5841;SDS011;2947;52.276;9.946;2023-04-01T03:35:31;3.47;;;1.23;;
5841;SDS011;2947;52.276;9.946;2023-04-01T03:37:57;4.60;;;0.97;;
5841;SDS011;2947;52.276;9.946;2023-04-01T03:40:23;8.03;;;1.20;;
5841;SDS011;2947;52.276;9.946;2023-04-01T03:42:51;4.00;;;1.00;;
5841;SDS011;2947;52.276;9.946;2023-04-01T03:45:17;3.63;;;1.10;;
5841;SDS011;2947;52.276;9.946;2023-04-01T03:47:43;3.30;;;1.20;;
5841;SDS011;2947;52.276;9.946;2023-04-01T03:50:09;3.67;;;0.93;;
5841;SDS011;2947;52.276;9.946;2023-04-01T03:52:36;5.97;;;1.57;;
5841;SDS011;2947;52.276;9.946;2023-04-01T03:55:01;3.00;;;0.93;;
5841;SDS011;2947;52.276;9.946;2023-04-01T03:57:27;4.20;;;1.27;;
5841;SDS011;2947;52.276;9.946;2023-04-01T03:59:55;3.87;;;1.87;;
5841;SDS011;2947;52.276;9.946;2023-04-01T04:02:21;3.30;;;0.93;;
5841;SDS011;2947;52.276;9.946;2023-04-01T04:04:46;2.13;;;0.80;;
5841;SDS011;2947;52.276;9.946;2023-04-01T04:07:12;9.63;;;1.27;;
5841;SDS011;2947;52.276;9.946;2023-04-01T04:09:38;3.40;;;1.20;;
5841;SDS011;2947;52.276;9.946;2023-04-01T04:12:04;2.03;;;0.70;;
5841;SDS011;2947;52.276;9.946;2023-04-01T04:14:31;2.20;;;0.80;;
5841;SDS011;2947;52.276;9.946;2023-04-01T04:16:57;3.40;;;0.90;;
5841;SDS011;2947;52.276;9.946;2023-04-01T04:19:23;5.20;;;1.00;;
5841;SDS011;2947;52.276;9.946;2023-04-01T04:21:48;2.17;;;0.90;;
5841;SDS011;2947;52.276;9.946;2023-04-01T04:24:15;4.40;;;1.30;;
5841;SDS011;2947;52.276;9.946;2023-04-01T04:26:40;3.00;;;0.90;;
5841;SDS011;2947;52.276;9.946;2023-04-01T04:29:06;3.43;;;0.90;;
5841;SDS011;2947;52.276;9.946;2023-04-01T04:31:32;2.07;;;0.80;;
5841;SDS011;2947;52.276;9.946;2023-04-01T04:33:58;2.57;;;0.87;;
5841;SDS011;2947;52.276;9.946;2023-04-01T04:36:26;2.50;;;0.90;;
5841;SDS011;2947;52.276;9.946;2023-04-01T04:38:52;3.13;;;1.00;;
5841;SDS011;2947;52.276;9.946;2023-04-01T04:41:18;2.83;;;0.97;;
5841;SDS011;2947;52.276;9.946;2023-04-01T04:43:51;4.50;;;1.27;;
5841;SDS011;2947;52.276;9.946;2023-04-01T04:46:21;4.50;;;1.53;;
5841;SDS011;2947;52.276;9.946;2023-04-01T04:48:47;8.70;;;1.07;;
5841;SDS011;2947;52.276;9.946;2023-04-01T04:51:17;4.20;;;1.13;;
5841;SDS011;2947;52.276;9.946;2023-04-01T04:53:44;4.77;;;1.10;;
5841;SDS011;2947;52.276;9.946;2023-04-01T04:56:12;6.37;;;1.23;;
5841;SDS011;2947;52.276;9.946;2023-04-01T04:58:38;2.90;;;1.20;;
5841;SDS011;2947;52.276;9.946;2023-04-01T05:01:09;2.47;;;1.00;;
5841;SDS011;2947;52.276;9.946;2023-04-01T05:03:38;8.50;;;1.53;;
5841;SDS011;2947;52.276;9.946;2023-04-01T05:06:04;4.20;;;1.73;;
5841;SDS011;2947;52.276;9.946;2023-04-01T05:08:30;5.37;;;1.77;;
5841;SDS011;2947;52.276;9.946;2023-04-01T05:10:57;5.63;;;1.87;;
5841;SDS011;2947;52.276;9.946;2023-04-01T05:13:24;5.50;;;1.67;;
5841;SDS011;2947;52.276;9.946;2023-04-01T05:15:50;6.13;;;1.60;;
5841;SDS011;2947;52.276;9.946;2023-04-01T05:18:17;4.67;;;1.60;;
5841;SDS011;2947;52.276;9.946;2023-04-01T05:20:49;6.00;;;1.70;;
5841;SDS011;2947;52.276;9.946;2023-04-01T05:23:18;2.87;;;1.40;;
5841;SDS011;2947;52.276;9.946;2023-04-01T05:25:46;3.97;;;1.60;;
5841;SDS011;2947;52.276;9.946;2023-04-01T05:28:13;4.43;;;2.00;;
5841;SDS011;2947;52.276;9.946;2023-04-01T05:30:40;5.03;;;1.33;;
5841;SDS011;2947;52.276;9.946;2023-04-01T05:33:06;4.40;;;1.63;;
5841;SDS011;2947;52.276;9.946;2023-04-01T05:35:33;4.50;;;1.70;;
5841;SDS011;2947;52.276;9.946;2023-04-01T05:37:58;7.43;;;2.33;;
5841;SDS011;2947;52.276;9.946;2023-04-01T05:40:24;11.37;;;1.80;;
5841;SDS011;2947;52.276;9.946;2023-04-01T05:42:50;5.90;;;1.93;;
5841;SDS011;2947;52.276;9.946;2023-04-01T05:45:15;4.20;;;1.70;;
5841;SDS011;2947;52.276;9.946;2023-04-01T05:47:42;4.00;;;1.70;;
5841;SDS011;2947;52.276;9.946;2023-04-01T05:50:09;2.87;;;1.40;;
5841;SDS011;2947;52.276;9.946;2023-04-01T05:52:35;3.83;;;1.60;;
5841;SDS011;2947;52.276;9.946;2023-04-01T05:55:02;6.97;;;2.10;;
5841;SDS011;2947;52.276;9.946;2023-04-01T05:57:30;3.70;;;1.20;;
5841;SDS011;2947;52.276;9.946;2023-04-01T05:59:56;2.83;;;1.23;;
5841;SDS011;2947;52.276;9.946;2023-04-01T06:02:22;7.00;;;1.30;;
5841;SDS011;2947;52.276;9.946;2023-04-01T06:04:48;5.80;;;1.57;;
5841;SDS011;2947;52.276;9.946;2023-04-01T06:07:15;4.80;;;1.40;;
5841;SDS011;2947;52.276;9.946;2023-04-01T06:09:43;5.43;;;1.63;;
5841;SDS011;2947;52.276;9.946;2023-04-01T06:12:19;8.63;;;1.80;;
5841;SDS011;2947;52.276;9.946;2023-04-01T06:21:08;5.30;;;2.60;;
5841;SDS011;2947;52.276;9.946;2023-04-01T06:30:47;7.00;;;1.83;;
5841;SDS011;2947;52.276;9.946;2023-04-01T06:36:39;8.30;;;2.40;;
5841;SDS011;2947;52.276;9.946;2023-04-01T06:42:15;5.87;;;1.67;;
5841;SDS011;2947;52.276;9.946;2023-04-01T06:50:24;3.40;;;1.03;;
5841;SDS011;2947;52.276;9.946;2023-04-01T06:56:05;3.60;;;1.30;;
5841;SDS011;2947;52.276;9.946;2023-04-01T07:01:16;6.37;;;1.80;;
5841;SDS011;2947;52.276;9.946;2023-04-01T07:04:46;7.40;;;1.63;;
5841;SDS011;2947;52.276;9.946;2023-04-01T07:06:58;5.10;;;1.30;;
5841;SDS011;2947;52.276;9.946;2023-04-01T07:09:40;3.07;;;1.20;;
5841;SDS011;2947;52.276;9.946;2023-04-01T07:15:14;3.27;;;1.20;;
5841;SDS011;2947;52.276;9.946;2023-04-01T07:17:47;4.60;;;1.37;;
5841;SDS011;2947;52.276;9.946;2023-04-01T07:20:42;3.93;;;1.20;;
5841;SDS011;2947;52.276;9.946;2023-04-01T07:23:11;4.60;;;1.50;;
5841;SDS011;2947;52.276;9.946;2023-04-01T07:26:13;5.30;;;1.20;;
5841;SDS011;2947;52.276;9.946;2023-04-01T07:28:46;5.80;;;1.20;;
5841;SDS011;2947;52.276;9.946;2023-04-01T07:31:33;2.97;;;1.33;;
5841;SDS011;2947;52.276;9.946;2023-04-01T07:34:44;1.97;;;0.97;;
5841;SDS011;2947;52.276;9.946;2023-04-01T07:37:31;4.03;;;1.30;;
5841;SDS011;2947;52.276;9.946;2023-04-01T07:40:19;4.37;;;1.50;;
5841;SDS011;2947;52.276;9.946;2023-04-01T07:43:11;3.30;;;1.27;;
5841;SDS011;2947;52.276;9.946;2023-04-01T07:51:39;3.47;;;0.90;;
5841;SDS011;2947;52.276;9.946;2023-04-01T07:57:30;4.23;;;0.97;;
5841;SDS011;2947;52.276;9.946;2023-04-01T08:00:16;6.57;;;1.00;;
5841;SDS011;2947;52.276;9.946;2023-04-01T08:03:51;3.17;;;1.13;;
5841;SDS011;2947;52.276;9.946;2023-04-01T08:12:02;2.80;;;1.00;;
5841;SDS011;2947;52.276;9.946;2023-04-01T08:23:32;5.40;;;0.80;;
5841;SDS011;2947;52.276;9.946;2023-04-01T08:26:19;6.13;;;1.30;;
5841;SDS011;2947;52.276;9.946;2023-04-01T08:29:02;4.37;;;1.00;;
5841;SDS011;2947;52.276;9.946;2023-04-01T08:31:55;3.23;;;0.73;;
5841;SDS011;2947;52.276;9.946;2023-04-01T08:34:39;9.33;;;1.00;;
5841;SDS011;2947;52.276;9.946;2023-04-01T08:37:28;3.33;;;0.83;;
5841;SDS011;2947;52.276;9.946;2023-04-01T08:49:31;1.43;;;0.70;;
5841;SDS011;2947;52.276;9.946;2023-04-01T08:52:22;2.87;;;0.80;;
5841;SDS011;2947;52.276;9.946;2023-04-01T08:58:11;3.80;;;1.00;;
5841;SDS011;2947;52.276;9.946;2023-04-01T09:18:01;3.57;;;1.10;;
5841;SDS011;2947;52.276;9.946;2023-04-01T09:35:23;3.70;;;0.70;;
5841;SDS011;2947;52.276;9.946;2023-04-01T09:40:58;1.97;;;0.83;;
5841;SDS011;2947;52.276;9.946;2023-04-01T09:44:02;2.13;;;0.70;;
5841;SDS011;2947;52.276;9.946;2023-04-01T09:49:37;1.50;;;0.70;;
5841;SDS011;2947;52.276;9.946;2023-04-01T09:57:53;3.10;;;0.70;;
5841;SDS011;2947;52.276;9.946;2023-04-01T10:22:09;2.33;;;0.80;;
5841;SDS011;2947;52.276;9.946;2023-04-01T10:31:12;1.73;;;0.60;;
5841;SDS011;2947;52.276;9.946;2023-04-01T10:34:06;1.98;;;0.75;;
5841;SDS011;2947;52.276;9.946;2023-04-01T10:37:08;3.20;;;0.80;;
5841;SDS011;2947;52.276;9.946;2023-04-01T10:43:01;2.47;;;0.80;;
5841;SDS011;2947;52.276;9.946;2023-04-01T10:57:56;2.85;;;0.70;;
5841;SDS011;2947;52.276;9.946;2023-04-01T11:25:36;2.20;;;0.70;;
5841;SDS011;2947;52.276;9.946;2023-04-01T11:35:20;3.45;;;0.90;;
5841;SDS011;2947;52.276;9.946;2023-04-01T11:44:04;3.30;;;0.82;;
5841;SDS011;2947;52.276;9.946;2023-04-01T11:47:05;1.90;;;0.98;;
5841;SDS011;2947;52.276;9.946;2023-04-01T11:53:18;1.75;;;0.73;;
5841;SDS011;2947;52.276;9.946;2023-04-01T12:07:50;2.80;;;0.90;;
5841;SDS011;2947;52.276;9.946;2023-04-01T12:22:08;2.03;;;0.80;;
5841;SDS011;2947;52.276;9.946;2023-04-01T12:30:36;1.50;;;0.65;;
5841;SDS011;2947;52.276;9.946;2023-04-01T12:36:09;3.85;;;1.50;;
5841;SDS011;2947;52.276;9.946;2023-04-01T12:39:06;1.88;;;1.00;;
5841;SDS011;2947;52.276;9.946;2023-04-01T12:54:31;3.55;;;1.45;;
5841;SDS011;2947;52.276;9.946;2023-04-01T13:03:19;2.58;;;1.00;;
5841;SDS011;2947;52.276;9.946;2023-04-01T13:11:30;2.45;;;1.13;;
5841;SDS011;2947;52.276;9.946;2023-04-01T13:14:24;3.10;;;0.80;;
5841;SDS011;2947;52.276;9.946;2023-04-01T13:20:43;2.97;;;1.20;;
5841;SDS011;2947;52.276;9.946;2023-04-01T13:23:24;3.50;;;1.30;;
5841;SDS011;2947;52.276;9.946;2023-04-01T13:26:18;1.83;;;1.00;;
5841;SDS011;2947;52.276;9.946;2023-04-01T13:43:04;2.63;;;0.83;;
5841;SDS011;2947;52.276;9.946;2023-04-01T14:00:03;2.00;;;0.90;;
5841;SDS011;2947;52.276;9.946;2023-04-01T14:02:56;2.57;;;1.40;;
5841;SDS011;2947;52.276;9.946;2023-04-01T14:09:27;2.40;;;1.47;;
5841;SDS011;2947;52.276;9.946;2023-04-01T14:15:04;4.22;;;1.98;;
5841;SDS011;2947;52.276;9.946;2023-04-01T14:24:14;2.70;;;1.53;;
5841;SDS011;2947;52.276;9.946;2023-04-01T14:36:53;3.10;;;1.20;;
5841;SDS011;2947;52.276;9.946;2023-04-01T14:42:59;1.90;;;0.90;;
5841;SDS011;2947;52.276;9.946;2023-04-01T14:51:45;2.10;;;0.90;;
5841;SDS011;2947;52.276;9.946;2023-04-01T14:59:40;1.70;;;0.67;;
5841;SDS011;2947;52.276;9.946;2023-04-01T15:02:33;3.73;;;1.20;;
5841;SDS011;2947;52.276;9.946;2023-04-01T15:10:59;1.67;;;0.70;;
5841;SDS011;2947;52.276;9.946;2023-04-01T15:14:10;1.43;;;0.60;;
5841;SDS011;2947;52.276;9.946;2023-04-01T15:25:45;1.47;;;0.70;;
5841;SDS011;2947;52.276;9.946;2023-04-01T15:31:15;2.43;;;1.13;;
5841;SDS011;2947;52.276;9.946;2023-04-01T15:37:30;1.70;;;0.90;;
5841;SDS011;2947;52.276;9.946;2023-04-01T15:42:54;1.60;;;0.80;;
5841;SDS011;2947;52.276;9.946;2023-04-01T15:54:45;1.70;;;0.73;;
5841;SDS011;2947;52.276;9.946;2023-04-01T16:00:34;1.97;;;0.87;;
5841;SDS011;2947;52.276;9.946;2023-04-01T16:06:14;2.10;;;0.87;;
5841;SDS011;2947;52.276;9.946;2023-04-01T16:09:06;2.00;;;0.80;;
5841;SDS011;2947;52.276;9.946;2023-04-01T16:18:07;2.90;;;0.70;;
5841;SDS011;2947;52.276;9.946;2023-04-01T16:21:01;1.43;;;0.57;;
5841;SDS011;2947;52.276;9.946;2023-04-01T16:26:28;1.43;;;0.67;;
5841;SDS011;2947;52.276;9.946;2023-04-01T16:29:46;1.40;;;0.60;;
5841;SDS011;2947;52.276;9.946;2023-04-01T16:32:27;1.50;;;0.70;;
5841;SDS011;2947;52.276;9.946;2023-04-01T16:38:03;2.10;;;1.00;;
5841;SDS011;2947;52.276;9.946;2023-04-01T16:43:56;2.70;;;0.97;;
5841;SDS011;2947;52.276;9.946;2023-04-01T16:46:41;8.23;;;3.70;;
5841;SDS011;2947;52.276;9.946;2023-04-01T16:57:26;2.00;;;1.30;;
5841;SDS011;2947;52.276;9.946;2023-04-01T17:03:12;1.77;;;1.03;;
5841;SDS011;2947;52.276;9.946;2023-04-01T17:06:05;2.17;;;0.90;;
5841;SDS011;2947;52.276;9.946;2023-04-01T17:11:47;1.50;;;0.90;;
5841;SDS011;2947;52.276;9.946;2023-04-01T17:14:33;1.53;;;0.80;;
5841;SDS011;2947;52.276;9.946;2023-04-01T17:20:29;2.67;;;0.70;;
5841;SDS011;2947;52.276;9.946;2023-04-01T17:23:08;2.13;;;0.80;;
5841;SDS011;2947;52.276;9.946;2023-04-01T17:31:21;2.47;;;1.00;;
5841;SDS011;2947;52.276;9.946;2023-04-01T17:34:03;1.67;;;0.90;;
5841;SDS011;2947;52.276;9.946;2023-04-01T17:37:00;1.70;;;0.87;;
5841;SDS011;2947;52.276;9.946;2023-04-01T17:39:49;2.03;;;1.00;;
5841;SDS011;2947;52.276;9.946;2023-04-01T17:42:59;1.37;;;0.70;;
5841;SDS011;2947;52.276;9.946;2023-04-01T17:46:02;2.10;;;0.90;;
5841;SDS011;2947;52.276;9.946;2023-04-01T17:57:47;1.60;;;0.80;;
5841;SDS011;2947;52.276;9.946;2023-04-01T18:06:51;1.70;;;0.80;;
5841;SDS011;2947;52.276;9.946;2023-04-01T18:15:37;2.20;;;1.10;;
5841;SDS011;2947;52.276;9.946;2023-04-01T18:18:35;1.50;;;0.80;;
5841;SDS011;2947;52.276;9.946;2023-04-01T18:27:02;3.00;;;1.07;;
5841;SDS011;2947;52.276;9.946;2023-04-01T18:29:53;3.80;;;1.10;;
5841;SDS011;2947;52.276;9.946;2023-04-01T18:32:37;1.83;;;1.00;;
5841;SDS011;2947;52.276;9.946;2023-04-01T18:35:18;1.80;;;1.20;;
5841;SDS011;2947;52.276;9.946;2023-04-01T18:38:14;1.60;;;0.90;;
5841;SDS011;2947;52.276;9.946;2023-04-01T18:40:53;2.07;;;0.93;;
5841;SDS011;2947;52.276;9.946;2023-04-01T18:46:30;2.33;;;1.20;;
5841;SDS011;2947;52.276;9.946;2023-04-01T18:51:48;1.50;;;0.80;;
5841;SDS011;2947;52.276;9.946;2023-04-01T18:54:32;2.30;;;1.17;;
5841;SDS011;2947;52.276;9.946;2023-04-01T18:57:13;2.33;;;0.70;;
5841;SDS011;2947;52.276;9.946;2023-04-01T18:59:43;1.50;;;0.60;;
5841;SDS011;2947;52.276;9.946;2023-04-01T19:02:31;3.80;;;1.10;;
5841;SDS011;2947;52.276;9.946;2023-04-01T19:05:17;3.83;;;1.13;;
5841;SDS011;2947;52.276;9.946;2023-04-01T19:07:50;2.17;;;1.10;;
5841;SDS011;2947;52.276;9.946;2023-04-01T19:13:07;4.47;;;1.60;;
5841;SDS011;2947;52.276;9.946;2023-04-01T19:16:06;2.00;;;1.10;;
5841;SDS011;2947;52.276;9.946;2023-04-01T19:19:11;1.90;;;1.00;;
5841;SDS011;2947;52.276;9.946;2023-04-01T19:22:13;5.70;;;0.90;;
5841;SDS011;2947;52.276;9.946;2023-04-01T19:28:26;4.67;;;2.33;;
5841;SDS011;2947;52.276;9.946;2023-04-01T19:31:28;2.10;;;1.40;;
5841;SDS011;2947;52.276;9.946;2023-04-01T19:36:57;2.90;;;1.67;;
5841;SDS011;2947;52.276;9.946;2023-04-01T19:39:39;2.07;;;1.33;;
5841;SDS011;2947;52.276;9.946;2023-04-01T19:43:13;2.73;;;1.60;;
5841;SDS011;2947;52.276;9.946;2023-04-01T19:46:10;3.20;;;1.60;;
5841;SDS011;2947;52.276;9.946;2023-04-01T19:49:00;3.47;;;1.70;;
5841;SDS011;2947;52.276;9.946;2023-04-01T19:52:00;2.33;;;1.37;;
5841;SDS011;2947;52.276;9.946;2023-04-01T19:57:57;4.40;;;2.10;;
5841;SDS011;2947;52.276;9.946;2023-04-01T20:00:47;2.00;;;1.23;;
5841;SDS011;2947;52.276;9.946;2023-04-01T20:12:00;3.50;;;1.73;;
5841;SDS011;2947;52.276;9.946;2023-04-01T20:14:49;2.47;;;1.27;;
5841;SDS011;2947;52.276;9.946;2023-04-01T20:19:59;1.90;;;1.23;;
5841;SDS011;2947;52.276;9.946;2023-04-01T20:25:46;5.20;;;1.63;;
5841;SDS011;2947;52.276;9.946;2023-04-01T20:28:25;2.70;;;1.60;;
5841;SDS011;2947;52.276;9.946;2023-04-01T20:51:26;2.87;;;1.60;;
5841;SDS011;2947;52.276;9.946;2023-04-01T20:59:47;4.77;;;1.90;;
5841;SDS011;2947;52.276;9.946;2023-04-01T21:05:37;2.90;;;1.90;;
5841;SDS011;2947;52.276;9.946;2023-04-01T21:11:57;3.23;;;2.10;;
5841;SDS011;2947;52.276;9.946;2023-04-01T21:14:59;2.93;;;1.60;;
5841;SDS011;2947;52.276;9.946;2023-04-01T21:17:52;3.47;;;1.33;;
5841;SDS011;2947;52.276;9.946;2023-04-01T21:29:51;6.93;;;2.93;;
5841;SDS011;2947;52.276;9.946;2023-04-01T21:32:36;7.83;;;2.70;;
5841;SDS011;2947;52.276;9.946;2023-04-01T21:52:20;5.57;;;2.90;;
5841;SDS011;2947;52.276;9.946;2023-04-01T21:58:28;8.27;;;3.40;;
5841;SDS011;2947;52.276;9.946;2023-04-01T22:07:02;6.63;;;3.73;;
5841;SDS011;2947;52.276;9.946;2023-04-01T22:18:56;5.80;;;3.17;;
5841;SDS011;2947;52.276;9.946;2023-04-01T22:21:43;3.97;;;2.20;;
5841;SDS011;2947;52.276;9.946;2023-04-01T22:24:29;5.40;;;2.93;;
5841;SDS011;2947;52.276;9.946;2023-04-01T22:27:19;6.50;;;3.40;;
5841;SDS011;2947;52.276;9.946;2023-04-01T22:30:06;3.77;;;2.33;;
5841;SDS011;2947;52.276;9.946;2023-04-01T22:33:03;9.70;;;3.07;;
5841;SDS011;2947;52.276;9.946;2023-04-01T22:38:41;4.33;;;1.93;;
5841;SDS011;2947;52.276;9.946;2023-04-01T22:41:30;5.53;;;2.50;;
5841;SDS011;2947;52.276;9.946;2023-04-01T22:47:25;2.73;;;2.33;;
5841;SDS011;2947;52.276;9.946;2023-04-01T22:50:10;8.73;;;3.80;;
5841;SDS011;2947;52.276;9.946;2023-04-01T22:56:56;9.73;;;2.30;;
5841;SDS011;2947;52.276;9.946;2023-04-01T23:00:04;11.80;;;4.00;;
5841;SDS011;2947;52.276;9.946;2023-04-01T23:05:55;4.33;;;2.30;;
5841;SDS011;2947;52.276;9.946;2023-04-01T23:11:55;10.53;;;3.53;;
5841;SDS011;2947;52.276;9.946;2023-04-01T23:14:46;7.10;;;3.23;;
5841;SDS011;2947;52.276;9.946;2023-04-01T23:26:02;4.90;;;2.67;;
5841;SDS011;2947;52.276;9.946;2023-04-01T23:28:59;10.37;;;4.00;;
5841;SDS011;2947;52.276;9.946;2023-04-01T23:31:38;4.50;;;2.90;;
5841;SDS011;2947;52.276;9.946;2023-04-01T23:36:42;6.37;;;3.43;;
5841;SDS011;2947;52.276;9.946;2023-04-01T23:39:17;7.67;;;3.53;;
5841;SDS011;2947;52.276;9.946;2023-04-01T23:41:50;6.30;;;2.97;;
5841;SDS011;2947;52.276;9.946;2023-04-01T23:44:56;14.47;;;3.70;;
5841;SDS011;2947;52.276;9.946;2023-04-01T23:47:35;9.40;;;4.27;;
5841;SDS011;2947;52.276;9.946;2023-04-01T23:50:06;8.20;;;2.83;;
5841;SDS011;2947;52.276;9.946;2023-04-01T23:52:42;10.43;;;2.90;;
5841;SDS011;2947;52.276;9.946;2023-04-01T23:55:13;4.90;;;3.20;;
